Terminal Aerodrome Forecast
Issued by NWS

Home | Current Version | Previous Version | Text Only | Print | Product List | Glossary On
Versions: 1 2 3 4 5 6 7 8 9 10 11 12 13 14 15 16 17 18 19 20 21 22 23 24 25 26 27 28 29 30 31 32
000
FTUS41 KBGM 191900 AAA
TAFITH
TAF AMD
KITH 191902Z 1919/2018 32008KT P6SM OVC012
      TEMPO 1919/1922 BKN009
     FM192200 32008KT P6SM BKN015 OVC025
     FM200200 33005KT P6SM OVC008=

USA.gov is the U.S. government's official web portal to all federal, state and local government web resources and services.